首页
METAR-TAF:

METAR-TAF

机场 :

斯德哥爾摩-阿蘭達機場

斯德哥爾摩-阿蘭達, 瑞典

纬度: 59-39N, 经度: 017-57E, 海拔: 38米

当前天气观测

该预报发布于37分钟前的06:20 UTC
风速5节,风向
温度 12°C
湿度 82%
气压 1013 hPa
能见度10公里或以上
少量云层高于3900英尺
阴天层高于8400英尺
小雨

METAR: ESSA 190620Z 08005KT 9999 -RA FEW039 OVC084 12/09 Q1013 TEMPO SHRA SCT020CB

时间: 08:57 (06:57 UTC)

预报

该预报发布于1小时和27分钟前的05:30 UTC
预报有效从19日的 06点(UTC)到 20日的 06点(UTC)
风速6节,风向东南
能见度10公里或以上
多云层高于4000英尺
短暂存在
从 19日的 06点(UTC)到 19日的 10点(UTC)
多云层高于3000英尺, 积雨云.
阵雨, 雷暴
几率 40%
从 19日的 10点(UTC)到 19日的 16点(UTC)
多云层高于900英尺
多云层高于3000英尺, 积雨云.
阵雨

TAF: ESSA 190530Z 1906/2006 13006KT 9999 BKN040 TEMPO 1906/1910 SHRA TS BKN030CB PROB40 1910/1916 SHRA BKN009 BKN030CB

超过4000个机场的气象观测和天气预报(METAR&TAF报告)。

可查询的气象台以黄色和红色小点在地图上表示。

将鼠标移到小点上方,可查看气象台名称。

然后点击查看天气观测和预报。

如需切换地图:点击带黑十字的绿色按钮放大地图;点击带横线的绿色按钮缩小地图;或者点击绿色箭头查看邻近地区的地图。


METAR-TAF: